createdAt,value
2023-03-29T00:02:30.469Z,101619.63
2023-03-29T00:05:35.024Z,101610.34
2023-03-29T00:08:40.056Z,101624.22
2023-03-29T00:11:43.398Z,101617.53
2023-03-29T00:14:48.208Z,101613.25
2023-03-29T00:17:51.847Z,101611.44
2023-03-29T00:21:00.044Z,101608.81
2023-03-29T00:24:04.903Z,101600.97
2023-03-29T00:27:08.194Z,101610.13
2023-03-29T00:30:12.184Z,101599.75
2023-03-29T00:33:15.744Z,101597.09
2023-03-29T00:36:18.910Z,101591.94
2023-03-29T00:39:23.516Z,101591.13
2023-03-29T00:42:27.085Z,101585.94
2023-03-29T00:45:31.124Z,101591.22
2023-03-29T00:48:34.322Z,101591.25
2023-03-29T00:51:39.350Z,101580.81
2023-03-29T00:54:47.169Z,101573.91
2023-03-29T00:57:53.648Z,101571.28
2023-03-29T01:01:03.076Z,101571.47
2023-03-29T01:04:18.685Z,101568.84
2023-03-29T01:07:28.319Z,101555.78
2023-03-29T01:10:38.930Z,101553.09
2023-03-29T01:13:46.545Z,101549.69
2023-03-29T01:16:49.558Z,101545.25
2023-03-29T01:20:00.357Z,101541.84
2023-03-29T01:23:27.277Z,101535.81
2023-03-29T01:26:40.913Z,101524.56
2023-03-29T01:29:49.061Z,101517.66
2023-03-29T01:32:56.856Z,101520.25
2023-03-29T01:36:06.532Z,101505.78
2023-03-29T01:39:09.894Z,101508.34
2023-03-29T01:42:27.169Z,101498.91
2023-03-29T01:45:38.340Z,101491.09
2023-03-29T01:48:49.950Z,101487.66
2023-03-29T01:51:59.406Z,101484.47
2023-03-29T01:55:09.930Z,101481.03
2023-03-29T01:58:16.342Z,101475.25
2023-03-29T02:01:26.336Z,101470.03
2023-03-29T02:04:34.608Z,101458.94
2023-03-29T02:07:40.609Z,101458.88
2023-03-29T02:10:43.791Z,101458.09
2023-03-29T02:13:49.087Z,101456.56
2023-03-29T02:16:53.653Z,101453.16
2023-03-29T02:20:14.263Z,101456.75
2023-03-29T02:23:23.388Z,101454.13
2023-03-29T02:26:29.207Z,101448.25
2023-03-29T02:29:32.559Z,101441.56
2023-03-29T02:32:50.124Z,101436.34
2023-03-29T02:35:58.522Z,101428.63
2023-03-29T02:39:07.868Z,101428.69
2023-03-29T02:42:12.331Z,101421.88
2023-03-29T02:45:18.453Z,101416.69
2023-03-29T02:48:26.805Z,101411.59
2023-03-29T02:51:36.086Z,101413.41
2023-03-29T02:54:43.009Z,101410.72
2023-03-29T02:57:45.990Z,101401.31
2023-03-29T03:00:50.310Z,101396.25
2023-03-29T03:03:54.730Z,101394.69
2023-03-29T03:06:58.099Z,101403.47
2023-03-29T03:10:03.857Z,101397.50
2023-03-29T03:13:07.146Z,101397.81
2023-03-29T03:16:10.925Z,101397.03
2023-03-29T03:19:15.325Z,101385.19
2023-03-29T03:22:20.761Z,101383.53
2023-03-29T03:25:24.659Z,101383.72
2023-03-29T03:28:28.201Z,101375.34
2023-03-29T03:31:33.788Z,101376.44
2023-03-29T03:34:49.645Z,101375.53
2023-03-29T03:37:52.592Z,101378.25
2023-03-29T03:40:56.204Z,101370.56
2023-03-29T03:43:59.844Z,101368.09
2023-03-29T03:47:03.512Z,101371.63
2023-03-29T03:50:10.107Z,101370.72
2023-03-29T03:53:14.543Z,101369.81
2023-03-29T03:56:57.565Z,101365.53
2023-03-29T04:00:19.229Z,101361.06
2023-03-29T04:03:29.340Z,101360.19
2023-03-29T04:06:34.367Z,101357.63
2023-03-29T04:09:57.355Z,101361.91
2023-03-29T04:13:13.654Z,101358.56
2023-03-29T04:16:36.865Z,101360.19
2023-03-29T04:19:57.462Z,101363.63
2023-03-29T04:23:03.482Z,101355.84
2023-03-29T04:26:07.718Z,101352.41
2023-03-29T04:29:23.783Z,101358.38
2023-03-29T04:32:34.541Z,101351.31
2023-03-29T04:35:42.461Z,101342.81
2023-03-29T04:38:52.296Z,101351.38
2023-03-29T04:41:55.983Z,101347.91
2023-03-29T04:45:02.832Z,101340.25
2023-03-29T04:48:25.761Z,101340.13
2023-03-29T04:51:29.638Z,101340.81
2023-03-29T04:54:37.577Z,101337.28
2023-03-29T04:57:55.788Z,101332.97
2023-03-29T05:01:14.064Z,101340.63
2023-03-29T05:04:22.001Z,101334.56
2023-03-29T05:07:56.266Z,101333.69
2023-03-29T05:11:10.383Z,101332.78
2023-03-29T05:14:13.393Z,101325.06
2023-03-29T05:17:16.587Z,101322.38
2023-03-29T05:20:20.888Z,101315.47
2023-03-29T05:23:25.700Z,101312.81
2023-03-29T05:26:51.806Z,101311.00
2023-03-29T05:29:55.145Z,101314.28
2023-03-29T05:33:05.599Z,101308.22
2023-03-29T05:36:14.885Z,101309.00
2023-03-29T05:39:24.900Z,101300.41
2023-03-29T05:42:29.563Z,101301.97
2023-03-29T05:45:41.534Z,101298.47
2023-03-29T05:48:44.961Z,101294.06
2023-03-29T05:51:48.040Z,101297.28
2023-03-29T05:54:51.591Z,101297.28
2023-03-29T05:57:56.564Z,101298.84
2023-03-29T06:01:05.436Z,101300.47
2023-03-29T06:04:27.360Z,101298.53
2023-03-29T06:07:51.948Z,101291.53
2023-03-29T06:11:14.374Z,101298.25
2023-03-29T06:14:37.631Z,101299.81
2023-03-29T06:17:52.430Z,101302.25
2023-03-29T06:20:58.673Z,101291.75
2023-03-29T06:24:01.716Z,101291.75
2023-03-29T06:27:10.509Z,101294.84
2023-03-29T06:30:16.945Z,101288.59
2023-03-29T06:33:25.330Z,101287.56
2023-03-29T06:36:36.205Z,101278.72
2023-03-29T06:39:39.970Z,101277.56
2023-03-29T06:43:12.950Z,101273.91
2023-03-29T06:46:30.906Z,101279.97
2023-03-29T06:49:37.488Z,101273.84
2023-03-29T06:52:52.569Z,101270.25
2023-03-29T06:55:55.749Z,101274.09
2023-03-29T06:59:15.202Z,101264.34
2023-03-29T07:02:30.552Z,101259.09
2023-03-29T07:05:40.909Z,101263.22
2023-03-29T07:08:47.419Z,101261.06
2023-03-29T07:11:56.999Z,101260.75
2023-03-29T07:15:01.360Z,101268.31
2023-03-29T07:18:26.722Z,101262.88
2023-03-29T07:21:30.144Z,101256.47
2023-03-29T07:24:33.508Z,101262.16
2023-03-29T07:27:42.147Z,101257.50
2023-03-29T07:30:45.768Z,101260.47
2023-03-29T07:33:56.205Z,101254.31
2023-03-29T07:37:01.742Z,101253.19
2023-03-29T07:40:12.820Z,101257.91
2023-03-29T07:43:47.261Z,101250.28
2023-03-29T07:46:54.138Z,101252.09
2023-03-29T07:49:59.102Z,101248.50
2023-03-29T07:53:03.277Z,101240.47
2023-03-29T07:56:10.150Z,101248.50
2023-03-29T07:59:24.888Z,101248.00
2023-03-29T08:02:45.488Z,101236.69
2023-03-29T08:05:49.879Z,101239.28
2023-03-29T08:08:52.861Z,101237.13
2023-03-29T08:11:57.491Z,101231.66
2023-03-29T08:15:08.024Z,101236.00
2023-03-29T08:18:11.119Z,101242.34
2023-03-29T08:21:15.785Z,101244.25
2023-03-29T08:24:23.395Z,101238.75
2023-03-29T08:27:32.241Z,101230.88
2023-03-29T08:30:36.226Z,101222.69
2023-03-29T08:33:40.241Z,101226.81
2023-03-29T08:37:16.411Z,101216.69
2023-03-29T08:40:26.312Z,101211.09
2023-03-29T08:44:11.309Z,101214.47
2023-03-29T08:47:41.494Z,101212.22
2023-03-29T08:50:53.556Z,101208.66
2023-03-29T08:54:02.204Z,101199.31
2023-03-29T08:57:32.954Z,101196.25
2023-03-29T09:00:48.688Z,101190.09
2023-03-29T09:04:04.726Z,101187.31
2023-03-29T09:07:46.773Z,101182.91
2023-03-29T09:11:12.140Z,101188.47
2023-03-29T09:14:39.706Z,101175.19
2023-03-29T09:18:07.198Z,101183.91
2023-03-29T09:21:22.347Z,101171.50
2023-03-29T09:24:50.939Z,101166.66
2023-03-29T09:28:05.399Z,101165.47
2023-03-29T09:31:29.646Z,101174.00
2023-03-29T09:34:43.930Z,101171.31
2023-03-29T09:37:55.879Z,101168.63
2023-03-29T09:41:06.723Z,101165.06
2023-03-29T09:47:29.530Z,101159.38
2023-03-29T09:50:39.193Z,101147.97
2023-03-29T09:53:44.725Z,101137.16
2023-03-29T09:57:01.007Z,101141.75
2023-03-29T10:00:09.874Z,101143.56
2023-03-29T10:03:20.421Z,101136.88
2023-03-29T10:06:31.374Z,101136.25
2023-03-29T10:09:38.211Z,101132.84
2023-03-29T10:12:55.309Z,101131.47
2023-03-29T10:16:09.234Z,101122.88
2023-03-29T10:19:21.787Z,101127.25
2023-03-29T10:22:28.088Z,101118.72
2023-03-29T10:25:33.799Z,101110.91
2023-03-29T10:28:41.511Z,101106.63
2023-03-29T10:31:45.913Z,101120.06
2023-03-29T10:34:49.996Z,101115.56
2023-03-29T10:37:54.722Z,101098.44
2023-03-29T10:41:07.993Z,101110.72
2023-03-29T10:44:30.888Z,101102.06
2023-03-29T10:48:22.021Z,101105.44
2023-03-29T10:51:30.964Z,101091.97
2023-03-29T10:54:33.946Z,101097.22
2023-03-29T10:57:48.932Z,101099.50
2023-03-29T11:00:59.292Z,101090.94
2023-03-29T11:04:23.703Z,101088.47
2023-03-29T11:07:33.365Z,101089.66
2023-03-29T11:10:46.752Z,101076.66
2023-03-29T11:13:58.746Z,101085.66
2023-03-29T11:17:21.494Z,101089.09
2023-03-29T11:20:34.659Z,101083.53
2023-03-29T11:23:49.895Z,101083.59
2023-03-29T11:27:05.705Z,101076.66
2023-03-29T11:30:14.737Z,101081.41
2023-03-29T11:33:31.050Z,101075.44
2023-03-29T11:36:50.381Z,101067.56
2023-03-29T11:40:36.686Z,101063.47
2023-03-29T11:43:44.772Z,101058.38
2023-03-29T11:46:54.444Z,101042.63
2023-03-29T11:50:00.774Z,101043.56
2023-03-29T11:53:16.093Z,101039.19
2023-03-29T11:56:29.385Z,101052.47
2023-03-29T11:59:39.748Z,101053.06
2023-03-29T12:02:48.932Z,101045.78
2023-03-29T12:05:59.399Z,101038.34
2023-03-29T12:09:08.380Z,101041.06
2023-03-29T12:12:17.901Z,101044.78
2023-03-29T12:15:25.101Z,101036.13
2023-03-29T12:18:33.301Z,101026.00
2023-03-29T12:21:38.017Z,101028.78
2023-03-29T12:24:47.726Z,101025.84
2023-03-29T12:28:07.756Z,101029.56
2023-03-29T12:31:23.478Z,101028.19
2023-03-29T12:34:41.232Z,101030.09
2023-03-29T12:38:14.131Z,101022.78
2023-03-29T12:41:44.962Z,101027.34
2023-03-29T12:45:13.645Z,101030.13
2023-03-29T12:48:21.389Z,101026.91
2023-03-29T12:51:36.375Z,101018.53
2023-03-29T12:54:39.912Z,101020.84
2023-03-29T12:58:05.361Z,101010.53
2023-03-29T13:01:11.855Z,100998.53
2023-03-29T13:04:26.740Z,101003.50
2023-03-29T13:07:34.035Z,100992.41
2023-03-29T13:10:42.528Z,100978.53
2023-03-29T13:13:53.223Z,100975.81
2023-03-29T13:17:15.540Z,100983.75
2023-03-29T13:20:41.765Z,100988.69
2023-03-29T13:23:58.733Z,100983.25
2023-03-29T13:27:12.760Z,100989.31
2023-03-29T13:30:28.624Z,100992.66
2023-03-29T13:33:52.849Z,100989.34
2023-03-29T13:37:08.432Z,100994.53
2023-03-29T13:40:44.393Z,100994.53
2023-03-29T13:43:54.264Z,100993.06
2023-03-29T13:47:17.333Z,100982.88
2023-03-29T13:50:35.256Z,100984.31
2023-03-29T13:53:47.054Z,100988.94
2023-03-29T13:57:06.781Z,100984.25
2023-03-29T14:00:20.044Z,100986.22
2023-03-29T14:03:29.907Z,100985.81
2023-03-29T14:06:36.570Z,100981.41
2023-03-29T14:09:45.912Z,100980.16
2023-03-29T14:12:49.808Z,100975.25
2023-03-29T14:15:55.970Z,100990.16
2023-03-29T14:19:03.626Z,100983.50
2023-03-29T14:22:11.429Z,100986.81
2023-03-29T14:25:18.204Z,100989.72
2023-03-29T14:28:24.276Z,100982.06
2023-03-29T14:31:31.752Z,100979.22
2023-03-29T14:34:36.136Z,100980.91
2023-03-29T14:37:39.568Z,100976.50
2023-03-29T14:40:45.168Z,100979.09
2023-03-29T14:43:48.621Z,100979.72
2023-03-29T14:46:55.185Z,100970.94
2023-03-29T14:50:01.828Z,100967.53
2023-03-29T14:53:07.884Z,100970.44
2023-03-29T14:56:15.663Z,100967.34
2023-03-29T14:59:28.259Z,100964.91
2023-03-29T15:02:34.003Z,100961.91
2023-03-29T15:05:42.142Z,100962.63
2023-03-29T15:09:01.449Z,100959.63
2023-03-29T15:12:16.674Z,100951.28
2023-03-29T15:15:20.383Z,100955.13
2023-03-29T15:18:29.423Z,100952.94
2023-03-29T15:21:36.291Z,100952.88
2023-03-29T15:24:49.757Z,100948.06
2023-03-29T15:28:01.423Z,100944.72
2023-03-29T15:31:12.206Z,100942.22
2023-03-29T15:34:26.532Z,100942.09
2023-03-29T15:37:31.086Z,100933.88
2023-03-29T15:40:34.143Z,100932.00
2023-03-29T15:43:37.137Z,100922.53
2023-03-29T15:46:40.134Z,100913.03
2023-03-29T15:49:43.185Z,100902.22
2023-03-29T15:52:48.313Z,100904.50
2023-03-29T15:55:53.656Z,100900.34
2023-03-29T15:58:56.629Z,100886.75
2023-03-29T16:02:00.164Z,100881.56
2023-03-29T16:05:03.835Z,100878.63
2023-03-29T16:08:10.565Z,100878.75
2023-03-29T16:11:13.554Z,100884.69
2023-03-29T16:14:25.083Z,100873.84
2023-03-29T16:17:28.230Z,100881.88
2023-03-29T16:20:31.381Z,100879.28
2023-03-29T16:23:35.728Z,100876.88
2023-03-29T16:26:39.156Z,100886.16
2023-03-29T16:29:45.343Z,100885.72
2023-03-29T16:32:48.348Z,100882.09
2023-03-29T16:35:54.970Z,100889.16
2023-03-29T16:38:59.521Z,100885.81
2023-03-29T16:42:06.104Z,100890.13
2023-03-29T16:45:14.650Z,100888.88
2023-03-29T16:48:19.840Z,100881.56
2023-03-29T16:51:22.931Z,100879.47
2023-03-29T16:54:29.659Z,100881.56
2023-03-29T16:57:33.473Z,100879.06
2023-03-29T17:00:36.648Z,100869.91
2023-03-29T17:03:41.026Z,100876.88
2023-03-29T17:06:44.089Z,100877.06
2023-03-29T17:09:48.365Z,100876.88
2023-03-29T17:12:51.645Z,100869.91
2023-03-29T17:15:56.507Z,100871.38
2023-03-29T17:19:00.294Z,100868.94
2023-03-29T17:22:03.657Z,100872.50
2023-03-29T17:25:09.832Z,100869.97
2023-03-29T17:28:12.834Z,100860.50
2023-03-29T17:31:16.086Z,100865.81
2023-03-29T17:34:20.552Z,100870.41
2023-03-29T17:37:23.901Z,100863.59
2023-03-29T17:40:29.057Z,100863.81
2023-03-29T17:43:32.692Z,100856.13
2023-03-29T17:46:37.764Z,100852.59
2023-03-29T17:49:40.795Z,100859.16
2023-03-29T17:52:43.990Z,100861.34
2023-03-29T17:55:48.262Z,100863.81
2023-03-29T17:58:51.963Z,100862.25
2023-03-29T18:01:55.062Z,100867.38
2023-03-29T18:05:02.015Z,100865.06
2023-03-29T18:08:08.613Z,100874.38
2023-03-29T18:11:18.809Z,100870.94
2023-03-29T18:14:22.073Z,100869.81
2023-03-29T18:17:27.241Z,100874.38
2023-03-29T18:20:30.348Z,100869.81
2023-03-29T18:23:33.554Z,100868.06
2023-03-29T18:26:37.838Z,100870.47
2023-03-29T18:29:40.790Z,100870.22
2023-03-29T18:32:44.055Z,100874.28
2023-03-29T18:35:50.437Z,100878.75
2023-03-29T18:38:55.876Z,100874.78
2023-03-29T18:42:00.759Z,100871.25
2023-03-29T18:45:04.629Z,100866.88
2023-03-29T18:48:07.886Z,100868.75
2023-03-29T18:51:12.601Z,100867.81
2023-03-29T18:54:16.094Z,100871.34
2023-03-29T18:57:20.940Z,100868.75
2023-03-29T19:00:24.624Z,100875.63
2023-03-29T19:03:27.768Z,100874.97
2023-03-29T19:06:31.660Z,100878.41
2023-03-29T19:09:35.687Z,100876.97
2023-03-29T19:12:40.023Z,100875.28
2023-03-29T19:15:43.189Z,100864.25
2023-03-29T19:18:46.212Z,100865.06
2023-03-29T19:21:50.484Z,100867.69
2023-03-29T19:24:53.464Z,100866.94
2023-03-29T19:27:58.715Z,100868.41
2023-03-29T19:31:03.278Z,100860.59
2023-03-29T19:34:09.483Z,100867.56
2023-03-29T19:37:12.660Z,100859.88
2023-03-29T19:40:15.968Z,100857.47
2023-03-29T19:43:20.919Z,100852.25
2023-03-29T19:46:24.197Z,100853.94
2023-03-29T19:49:27.712Z,100844.56
2023-03-29T19:52:31.369Z,100841.94
2023-03-29T19:55:35.980Z,100835.38
2023-03-29T19:58:40.262Z,100837.34
2023-03-29T20:01:50.668Z,100831.53
2023-03-29T20:04:55.027Z,100833.28
2023-03-29T20:07:58.265Z,100832.47
2023-03-29T20:11:04.746Z,100827.66
2023-03-29T20:14:14.127Z,100827.66
2023-03-29T20:17:17.296Z,100818.56
2023-03-29T20:20:23.015Z,100812.06
2023-03-29T20:23:26.728Z,100815.56
2023-03-29T20:26:33.344Z,100817.34
2023-03-29T20:29:38.349Z,100816.50
2023-03-29T20:32:41.738Z,100814.53
2023-03-29T20:35:46.036Z,100813.50
2023-03-29T20:38:49.572Z,100799.56
2023-03-29T20:41:52.710Z,100799.66
2023-03-29T20:44:57.335Z,100794.56
2023-03-29T20:48:02.243Z,100796.25
2023-03-29T20:51:11.333Z,100789.56
2023-03-29T20:54:14.399Z,100790.38
2023-03-29T20:57:20.588Z,100785.50
2023-03-29T21:00:26.191Z,100774.34
2023-03-29T21:03:29.227Z,100774.34
2023-03-29T21:06:33.427Z,100775.19
2023-03-29T21:09:37.214Z,100775.84
2023-03-29T21:12:41.097Z,100774.91
2023-03-29T21:15:47.361Z,100768.97
2023-03-29T21:18:50.401Z,100769.38
2023-03-29T21:21:54.916Z,100762.28
2023-03-29T21:24:57.913Z,100769.44
2023-03-29T21:28:00.840Z,100764.34
2023-03-29T21:31:07.471Z,100758.22
2023-03-29T21:34:10.505Z,100757.28
2023-03-29T21:37:15.243Z,100750.00
2023-03-29T21:40:18.495Z,100753.56
2023-03-29T21:43:21.841Z,100741.50
2023-03-29T21:46:26.315Z,100739.19
2023-03-29T21:49:29.372Z,100732.63
2023-03-29T21:52:32.312Z,100728.38
2023-03-29T21:55:36.449Z,100724.81
2023-03-29T21:58:39.414Z,100724.09
2023-03-29T22:01:43.810Z,100721.69
2023-03-29T22:04:46.767Z,100714.84
2023-03-29T22:07:50.384Z,100711.28
2023-03-29T22:10:56.679Z,100706.50
2023-03-29T22:13:59.767Z,100700.38
2023-03-29T22:17:06.787Z,100708.16
2023-03-29T22:20:14.281Z,100717.44
2023-03-29T22:23:17.768Z,100711.28
2023-03-29T22:26:23.894Z,100709.63
2023-03-29T22:29:27.005Z,100712.94
2023-03-29T22:32:32.476Z,100702.66
2023-03-29T22:35:35.979Z,100702.88
2023-03-29T22:38:40.541Z,100699.63
2023-03-29T22:41:43.559Z,100697.88
2023-03-29T22:44:47.704Z,100701.41
2023-03-29T22:47:52.105Z,100691.94
2023-03-29T22:50:57.649Z,100693.31
2023-03-29T22:54:00.627Z,100694.25
2023-03-29T22:57:03.651Z,100692.47
2023-03-29T23:00:10.401Z,100684.97
2023-03-29T23:03:15.576Z,100677.19
2023-03-29T23:06:18.871Z,100678.19
2023-03-29T23:09:22.076Z,100677.91
2023-03-29T23:12:25.119Z,100668.63
2023-03-29T23:15:29.759Z,100663.53
2023-03-29T23:18:37.318Z,100669.69
2023-03-29T23:21:41.050Z,100654.19
2023-03-29T23:24:46.546Z,100654.19
2023-03-29T23:27:49.584Z,100654.91
2023-03-29T23:31:00.327Z,100648.88
2023-03-29T23:34:04.807Z,100644.22
2023-03-29T23:37:07.757Z,100646.81
2023-03-29T23:40:14.191Z,100648.66
2023-03-29T23:43:18.000Z,100649.78
2023-03-29T23:46:21.550Z,100635.97
2023-03-29T23:49:25.970Z,100639.19
2023-03-29T23:52:28.994Z,100633.06
2023-03-29T23:55:32.131Z,100632.25
2023-03-29T23:58:38.451Z,100634.00
